createdAt,value
2022-12-09T00:01:48.577Z,11.33
2022-12-09T00:04:17.534Z,9.90
2022-12-09T00:06:45.307Z,11.07
2022-12-09T00:09:15.273Z,11.00
2022-12-09T00:11:42.961Z,9.93
2022-12-09T00:14:11.518Z,11.70
2022-12-09T00:16:40.914Z,10.43
2022-12-09T00:19:08.790Z,11.80
2022-12-09T00:21:36.946Z,10.83
2022-12-09T00:24:07.666Z,10.30
2022-12-09T00:26:35.626Z,11.53
2022-12-09T00:29:03.645Z,10.60
2022-12-09T00:31:33.707Z,10.60
2022-12-09T00:34:05.019Z,10.70
2022-12-09T00:36:33.099Z,10.63
2022-12-09T00:39:01.399Z,9.53
2022-12-09T00:41:30.131Z,10.60
2022-12-09T00:43:58.407Z,9.80
2022-12-09T00:46:26.534Z,10.05
2022-12-09T00:48:54.334Z,10.80
2022-12-09T00:51:24.784Z,9.47
2022-12-09T00:53:54.774Z,9.80
2022-12-09T00:56:22.976Z,9.77
2022-12-09T00:58:50.670Z,11.17
2022-12-09T01:01:18.516Z,11.50
2022-12-09T01:03:46.096Z,10.67
2022-12-09T01:06:19.137Z,10.97
2022-12-09T01:08:48.309Z,10.50
2022-12-09T01:11:18.537Z,11.27
2022-12-09T01:13:46.155Z,10.37
2022-12-09T01:16:18.084Z,11.23
2022-12-09T01:18:46.066Z,11.93
2022-12-09T01:21:13.957Z,10.97
2022-12-09T01:23:41.895Z,10.27
2022-12-09T01:26:11.341Z,9.70
2022-12-09T01:28:40.466Z,11.33
2022-12-09T01:31:09.296Z,11.65
2022-12-09T01:33:37.072Z,10.87
2022-12-09T01:36:06.248Z,10.77
2022-12-09T01:38:33.770Z,10.97
2022-12-09T01:41:01.535Z,10.20
2022-12-09T01:43:30.543Z,9.33
2022-12-09T01:45:58.166Z,12.10
2022-12-09T01:48:28.374Z,11.13
2022-12-09T01:50:57.857Z,10.23
2022-12-09T01:53:27.598Z,9.90
2022-12-09T01:55:55.533Z,11.97
2022-12-09T01:58:23.128Z,10.10
2022-12-09T02:00:52.185Z,10.87
2022-12-09T02:03:20.022Z,9.33
2022-12-09T02:05:49.205Z,10.90
2022-12-09T02:08:19.025Z,11.10
2022-12-09T02:10:52.223Z,11.68
2022-12-09T02:13:25.088Z,9.65
2022-12-09T02:15:56.528Z,10.63
2022-12-09T02:18:26.927Z,10.32
2022-12-09T02:20:58.817Z,10.70
2022-12-09T02:23:29.984Z,9.53
2022-12-09T02:25:59.134Z,11.70
2022-12-09T02:29:00.246Z,11.03
2022-12-09T02:31:44.823Z,11.13
2022-12-09T02:34:15.387Z,9.60
2022-12-09T02:36:51.001Z,10.13
2022-12-09T02:39:24.224Z,10.30
2022-12-09T02:41:53.515Z,10.70
2022-12-09T02:44:22.571Z,10.53
2022-12-09T02:46:51.167Z,10.23
2022-12-09T02:49:20.620Z,11.40
2022-12-09T02:51:50.539Z,10.70
2022-12-09T02:54:19.740Z,11.27
2022-12-09T02:56:52.884Z,10.90
2022-12-09T02:59:20.691Z,11.03
2022-12-09T03:01:53.031Z,11.37
2022-12-09T03:04:25.665Z,11.77
2022-12-09T03:06:54.462Z,11.73
2022-12-09T03:09:25.183Z,13.20
2022-12-09T03:11:53.752Z,11.70
2022-12-09T03:14:26.074Z,13.13
2022-12-09T03:16:58.015Z,13.23
2022-12-09T03:19:31.391Z,13.57
2022-12-09T03:22:01.656Z,13.73
2022-12-09T03:24:31.870Z,13.07
2022-12-09T03:27:01.180Z,12.97
2022-12-09T03:29:30.458Z,12.97
2022-12-09T03:31:59.528Z,12.60
2022-12-09T03:34:31.738Z,15.57
2022-12-09T03:37:00.044Z,13.00
2022-12-09T03:39:30.910Z,12.33
2022-12-09T03:41:59.625Z,12.20
2022-12-09T03:44:31.279Z,12.63
2022-12-09T03:46:59.476Z,13.10
2022-12-09T03:49:28.474Z,13.25
2022-12-09T03:51:58.557Z,13.45
2022-12-09T03:54:29.767Z,13.17
2022-12-09T03:56:58.679Z,12.30
2022-12-09T03:59:28.690Z,12.87
2022-12-09T04:01:56.339Z,12.57
2022-12-09T04:04:24.384Z,12.10
2022-12-09T04:06:54.608Z,11.48
2022-12-09T04:09:22.539Z,11.07
2022-12-09T04:11:50.116Z,12.03
2022-12-09T04:14:18.341Z,12.13
2022-12-09T04:16:46.368Z,13.25
2022-12-09T04:19:13.987Z,14.37
2022-12-09T04:21:41.908Z,13.23
2022-12-09T04:24:11.502Z,12.98
2022-12-09T04:26:39.414Z,13.45
2022-12-09T04:29:07.027Z,14.63
2022-12-09T04:31:34.981Z,15.53
2022-12-09T04:34:08.367Z,13.05
2022-12-09T04:36:37.262Z,15.20
2022-12-09T04:39:05.396Z,14.05
2022-12-09T04:41:34.445Z,13.68
2022-12-09T04:44:02.467Z,13.03
2022-12-09T04:46:30.324Z,12.75
2022-12-09T04:48:58.272Z,12.20
2022-12-09T04:51:26.057Z,11.57
2022-12-09T04:53:53.862Z,13.77
2022-12-09T04:56:23.653Z,12.70
2022-12-09T04:58:52.641Z,12.90
2022-12-09T05:01:26.666Z,11.90
2022-12-09T05:03:57.872Z,12.30
2022-12-09T05:06:25.969Z,13.60
2022-12-09T05:08:54.068Z,13.10
2022-12-09T05:11:23.896Z,13.30
2022-12-09T05:13:53.944Z,12.87
2022-12-09T05:16:22.475Z,13.57
2022-12-09T05:18:50.754Z,12.97
2022-12-09T05:21:20.233Z,12.17
2022-12-09T05:23:48.653Z,12.10
2022-12-09T05:26:18.549Z,11.87
2022-12-09T05:28:46.385Z,12.80
2022-12-09T05:31:19.853Z,10.67
2022-12-09T05:33:48.676Z,12.40
2022-12-09T05:36:18.948Z,11.80
2022-12-09T05:38:47.036Z,11.90
2022-12-09T05:41:14.746Z,10.90
2022-12-09T05:43:42.431Z,12.60
2022-12-09T05:46:11.474Z,11.75
2022-12-09T05:48:41.505Z,11.40
2022-12-09T05:51:13.209Z,12.43
2022-12-09T05:53:40.812Z,12.90
2022-12-09T05:56:08.520Z,11.03
2022-12-09T05:58:36.240Z,13.17
2022-12-09T06:01:08.065Z,12.03
2022-12-09T06:03:36.705Z,9.50
2022-12-09T06:06:08.410Z,12.43
2022-12-09T06:08:36.329Z,10.43
2022-12-09T06:11:04.840Z,11.17
2022-12-09T06:13:32.733Z,10.10
2022-12-09T06:16:03.680Z,12.13
2022-12-09T06:18:32.124Z,10.70
2022-12-09T06:20:59.796Z,10.47
2022-12-09T06:23:28.791Z,10.17
2022-12-09T06:25:56.655Z,10.47
2022-12-09T06:28:24.489Z,10.07
2022-12-09T06:30:52.410Z,10.43
2022-12-09T06:33:52.384Z,11.00
2022-12-09T06:36:08.594Z,10.30
2022-12-09T06:38:37.764Z,9.70
2022-12-09T06:41:09.891Z,10.87
2022-12-09T06:43:38.278Z,11.00
2022-12-09T06:46:12.972Z,11.07
2022-12-09T06:48:41.104Z,11.98
2022-12-09T06:51:09.585Z,11.32
2022-12-09T06:53:38.705Z,12.23
2022-12-09T06:56:11.898Z,11.60
2022-12-09T06:58:42.046Z,10.33
2022-12-09T07:01:13.635Z,12.60
2022-12-09T07:03:42.891Z,11.57
2022-12-09T07:06:20.448Z,11.10
2022-12-09T07:08:49.478Z,11.57
2022-12-09T07:11:17.552Z,10.90
2022-12-09T07:13:45.481Z,12.00
2022-12-09T07:16:13.432Z,11.63
2022-12-09T07:18:41.425Z,11.67
2022-12-09T07:21:10.054Z,12.43
2022-12-09T07:23:38.326Z,12.13
2022-12-09T07:26:08.096Z,14.43
2022-12-09T07:28:36.437Z,11.00
2022-12-09T07:31:04.587Z,11.70
2022-12-09T07:33:34.595Z,12.63
2022-12-09T07:36:03.105Z,16.90
2022-12-09T07:38:31.034Z,16.63
2022-12-09T07:41:07.614Z,16.87
2022-12-09T07:43:35.417Z,14.07
2022-12-09T07:46:06.781Z,15.00
2022-12-09T07:48:35.168Z,39.27
2022-12-09T07:51:03.481Z,16.57
2022-12-09T07:53:31.523Z,13.70
2022-12-09T07:56:02.448Z,12.70
2022-12-09T07:58:31.414Z,12.77
2022-12-09T08:00:59.132Z,13.60
2022-12-09T08:03:26.936Z,15.60
2022-12-09T08:05:54.839Z,14.20
2022-12-09T08:08:23.020Z,14.80
2022-12-09T08:10:50.959Z,13.88
2022-12-09T08:13:19.990Z,13.40
2022-12-09T08:15:49.405Z,14.30
2022-12-09T08:18:17.328Z,14.33
2022-12-09T08:20:45.449Z,16.50
2022-12-09T08:23:13.108Z,16.23
2022-12-09T08:25:41.158Z,17.83
2022-12-09T08:28:09.515Z,17.47
2022-12-09T08:30:37.836Z,22.03
2022-12-09T08:33:07.249Z,17.00
2022-12-09T08:35:35.040Z,18.03
2022-12-09T08:38:02.926Z,16.77
2022-12-09T08:40:31.001Z,15.70
2022-12-09T08:42:58.740Z,15.82
2022-12-09T08:45:26.468Z,18.30
2022-12-09T08:47:54.847Z,21.00
2022-12-09T08:50:24.260Z,17.07
2022-12-09T08:52:52.628Z,18.13
2022-12-09T08:55:20.305Z,20.00
2022-12-09T08:57:47.802Z,23.80
2022-12-09T09:00:16.900Z,32.55
2022-12-09T09:02:44.825Z,29.85
2022-12-09T09:05:12.690Z,30.95
2022-12-09T09:07:42.736Z,27.02
2022-12-09T09:10:11.890Z,21.73
2022-12-09T09:12:43.477Z,18.63
2022-12-09T09:15:12.644Z,19.40
2022-12-09T09:17:41.406Z,16.95
2022-12-09T09:20:12.542Z,18.13
2022-12-09T09:22:41.728Z,20.20
2022-12-09T09:25:10.808Z,22.30
2022-12-09T09:27:38.553Z,16.50
2022-12-09T09:30:09.486Z,16.80
2022-12-09T09:32:37.336Z,15.70
2022-12-09T09:35:06.419Z,14.67
2022-12-09T09:37:34.341Z,15.07
2022-12-09T09:40:03.444Z,14.13
2022-12-09T09:42:35.770Z,13.23
2022-12-09T09:45:07.486Z,13.30
2022-12-09T09:47:38.838Z,12.97
2022-12-09T09:50:17.838Z,11.20
2022-12-09T09:52:45.994Z,12.18
2022-12-09T09:55:18.450Z,8.77
2022-12-09T09:57:49.241Z,9.77
2022-12-09T10:00:24.476Z,11.10
2022-12-09T10:03:01.247Z,10.17
2022-12-09T10:05:34.488Z,11.90
2022-12-09T10:08:16.811Z,9.87
2022-12-09T10:10:53.734Z,9.97
2022-12-09T10:13:30.795Z,8.90
2022-12-09T10:16:05.670Z,10.95
2022-12-09T10:18:36.996Z,10.97
2022-12-09T10:21:16.371Z,10.13
2022-12-09T10:23:44.998Z,9.57
2022-12-09T10:26:18.585Z,9.73
2022-12-09T10:28:48.539Z,12.40
2022-12-09T10:31:16.585Z,11.37
2022-12-09T10:33:44.776Z,12.93
2022-12-09T10:36:23.441Z,11.60
2022-12-09T10:38:51.077Z,11.27
2022-12-09T10:41:57.765Z,9.50
2022-12-09T10:44:26.856Z,9.37
2022-12-09T10:46:59.062Z,13.13
2022-12-09T10:49:27.396Z,9.60
2022-12-09T10:51:57.371Z,10.77
2022-12-09T10:54:33.629Z,10.90
2022-12-09T10:57:05.735Z,9.77
2022-12-09T10:59:34.061Z,8.50
2022-12-09T11:02:03.916Z,8.93
2022-12-09T11:04:34.153Z,7.40
2022-12-09T11:07:04.983Z,9.30
2022-12-09T11:09:34.953Z,9.37
2022-12-09T11:12:06.861Z,9.55
2022-12-09T11:14:36.697Z,9.10
2022-12-09T11:17:17.616Z,8.45
2022-12-09T11:19:47.912Z,8.87
2022-12-09T11:22:33.728Z,9.43
2022-12-09T11:25:20.179Z,9.73
2022-12-09T11:27:53.802Z,10.43
2022-12-09T11:30:24.613Z,10.30
2022-12-09T11:32:59.045Z,9.50
2022-12-09T11:35:52.719Z,9.77
2022-12-09T11:38:26.486Z,9.37
2022-12-09T11:41:01.382Z,8.93
2022-12-09T11:43:40.634Z,8.83
2022-12-09T11:46:18.804Z,8.53
2022-12-09T11:48:51.061Z,9.37
2022-12-09T11:51:22.203Z,9.50
2022-12-09T11:53:50.095Z,9.95
2022-12-09T11:56:19.711Z,10.10
2022-12-09T11:58:51.605Z,11.37
2022-12-09T12:01:24.780Z,12.13
2022-12-09T12:03:55.108Z,11.00
2022-12-09T12:06:23.850Z,12.87
2022-12-09T12:08:54.973Z,11.60
2022-12-09T12:11:28.217Z,9.80
2022-12-09T12:14:02.515Z,10.50
2022-12-09T12:16:39.302Z,12.53
2022-12-09T12:19:14.971Z,11.20
2022-12-09T12:21:59.224Z,10.27
2022-12-09T12:24:39.233Z,9.90
2022-12-09T12:27:25.119Z,9.80
2022-12-09T12:29:59.955Z,10.10
2022-12-09T12:32:38.518Z,7.93
2022-12-09T12:35:38.545Z,11.98
2022-12-09T12:38:14.245Z,12.10
2022-12-09T12:40:44.653Z,11.37
2022-12-09T12:43:41.934Z,11.17
2022-12-09T12:46:33.323Z,10.77
2022-12-09T12:49:12.464Z,12.40
2022-12-09T12:51:48.440Z,19.63
2022-12-09T12:54:24.567Z,12.13
2022-12-09T12:57:03.737Z,14.40
2022-12-09T12:59:40.840Z,18.00
2022-12-09T13:02:20.451Z,11.60
2022-12-09T13:04:58.560Z,9.80
2022-12-09T13:07:31.390Z,8.10
2022-12-09T13:10:03.630Z,8.15
2022-12-09T13:12:51.677Z,7.23
2022-12-09T13:15:21.140Z,7.90
2022-12-09T13:17:50.634Z,7.60
2022-12-09T13:20:40.046Z,8.40
2022-12-09T13:23:15.723Z,7.70
2022-12-09T13:25:48.109Z,7.32
2022-12-09T13:28:20.850Z,8.20
2022-12-09T13:30:54.415Z,7.27
2022-12-09T13:33:45.775Z,7.80
2022-12-09T13:36:19.138Z,7.45
2022-12-09T13:38:46.813Z,7.90
2022-12-09T13:41:56.571Z,8.35
2022-12-09T13:44:30.218Z,7.93
2022-12-09T13:47:16.041Z,6.90
2022-12-09T13:49:53.951Z,7.03
2022-12-09T13:52:40.067Z,8.20
2022-12-09T13:55:19.879Z,8.90
2022-12-09T13:57:52.111Z,7.23
2022-12-09T14:00:20.348Z,8.57
2022-12-09T14:02:55.219Z,7.60
2022-12-09T14:05:25.972Z,7.72
2022-12-09T14:07:56.159Z,7.60
2022-12-09T14:10:38.356Z,7.57
2022-12-09T14:13:21.813Z,6.80
2022-12-09T14:16:10.810Z,7.33
2022-12-09T14:18:43.004Z,6.30
2022-12-09T14:21:42.462Z,6.13
2022-12-09T14:24:32.614Z,6.60
2022-12-09T14:27:13.633Z,7.00
2022-12-09T14:29:52.745Z,6.00
2022-12-09T14:32:22.383Z,6.70
2022-12-09T14:35:00.936Z,6.10
2022-12-09T14:37:43.941Z,18.67
2022-12-09T14:40:24.272Z,13.10
2022-12-09T14:42:56.015Z,11.10
2022-12-09T14:45:36.964Z,14.50
2022-12-09T14:48:10.457Z,18.07
2022-12-09T14:50:38.984Z,10.10
2022-12-09T14:53:25.186Z,7.67
2022-12-09T14:55:53.140Z,6.50
2022-12-09T14:58:33.746Z,7.67
2022-12-09T15:01:09.802Z,7.53
2022-12-09T15:03:45.697Z,8.43
2022-12-09T15:06:18.249Z,8.70
2022-12-09T15:08:47.830Z,8.03
2022-12-09T15:11:20.257Z,7.60
2022-12-09T15:14:32.123Z,7.93
2022-12-09T15:17:09.825Z,9.00
2022-12-09T15:22:30.178Z,7.97
2022-12-09T15:24:59.632Z,8.70
2022-12-09T15:27:28.863Z,8.10
2022-12-09T15:29:56.473Z,9.63
2022-12-09T15:32:26.662Z,10.63
2022-12-09T15:35:01.802Z,7.33
2022-12-09T15:37:31.646Z,8.50
2022-12-09T15:40:04.620Z,8.60
2022-12-09T15:42:41.852Z,9.20
2022-12-09T15:45:16.592Z,9.73
2022-12-09T15:48:13.874Z,7.67
2022-12-09T15:51:05.691Z,7.53
2022-12-09T15:54:19.053Z,8.60
2022-12-09T15:56:52.733Z,7.30
2022-12-09T15:59:43.957Z,7.72
2022-12-09T16:02:18.610Z,8.23
2022-12-09T16:04:59.387Z,7.50
2022-12-09T16:08:52.137Z,10.03
2022-12-09T16:11:12.732Z,7.30
2022-12-09T16:13:59.970Z,7.70
2022-12-09T16:16:36.627Z,8.30
2022-12-09T16:19:23.460Z,9.00
2022-12-09T16:21:55.266Z,8.90
2022-12-09T16:25:13.035Z,9.00
2022-12-09T16:27:57.073Z,9.10
2022-12-09T16:30:29.684Z,8.53
2022-12-09T16:32:58.914Z,8.77
2022-12-09T16:35:28.305Z,12.93
2022-12-09T16:38:14.642Z,10.43
2022-12-09T16:41:04.526Z,9.93
2022-12-09T16:43:32.888Z,9.27
2022-12-09T16:46:03.330Z,8.15
2022-12-09T16:48:31.712Z,8.60
2022-12-09T16:51:04.916Z,8.50
2022-12-09T16:53:33.829Z,8.15
2022-12-09T16:56:02.711Z,9.30
2022-12-09T16:58:31.454Z,8.35
2022-12-09T17:01:01.864Z,13.27
2022-12-09T17:03:36.138Z,12.90
2022-12-09T17:06:03.901Z,8.80
2022-12-09T17:08:32.058Z,6.97
2022-12-09T17:10:59.647Z,7.30
2022-12-09T17:13:27.428Z,7.85
2022-12-09T17:15:58.345Z,7.82
2022-12-09T17:18:29.160Z,7.43
2022-12-09T17:21:04.032Z,7.78
2022-12-09T17:23:39.126Z,6.97
2022-12-09T17:26:09.433Z,10.57
2022-12-09T17:28:37.716Z,9.95
2022-12-09T17:31:08.844Z,7.53
2022-12-09T17:33:38.476Z,8.60
2022-12-09T17:38:38.278Z,8.55
2022-12-09T17:41:07.283Z,8.00
2022-12-09T17:43:35.795Z,7.43
2022-12-09T17:46:04.717Z,7.37
2022-12-09T17:48:33.628Z,7.68
2022-12-09T17:51:07.841Z,7.80
2022-12-09T17:53:36.911Z,9.65
2022-12-09T17:56:08.801Z,9.23
2022-12-09T17:58:36.879Z,8.82
2022-12-09T18:01:04.779Z,7.15
2022-12-09T18:03:54.993Z,7.80
2022-12-09T18:06:22.897Z,7.88
2022-12-09T18:08:50.583Z,7.60
2022-12-09T18:11:18.324Z,7.70
2022-12-09T18:13:46.744Z,7.22
2022-12-09T18:16:15.717Z,7.93
2022-12-09T18:18:43.865Z,6.88
2022-12-09T18:21:16.004Z,8.52
2022-12-09T18:23:45.641Z,7.80
2022-12-09T18:26:15.181Z,8.40
2022-12-09T18:28:49.419Z,9.20
2022-12-09T18:31:19.099Z,9.70
2022-12-09T18:33:49.736Z,8.52
2022-12-09T18:36:21.750Z,9.63
2022-12-09T18:38:50.996Z,8.43
2022-12-09T18:41:21.157Z,8.20
2022-12-09T18:43:50.544Z,10.60
2022-12-09T18:46:25.003Z,8.65
2022-12-09T18:48:56.632Z,7.35
2022-12-09T18:51:27.398Z,7.75
2022-12-09T18:53:57.629Z,7.70
2022-12-09T18:56:25.671Z,10.27
2022-12-09T18:59:09.655Z,10.23
2022-12-09T19:01:41.561Z,9.15
2022-12-09T19:04:13.639Z,9.52
2022-12-09T19:06:43.496Z,11.77
2022-12-09T19:09:13.735Z,11.00
2022-12-09T19:11:43.148Z,10.95
2022-12-09T19:14:11.583Z,11.17
2022-12-09T19:17:59.558Z,15.70
2022-12-09T19:20:05.871Z,11.07
2022-12-09T19:22:33.914Z,11.43
2022-12-09T19:25:03.263Z,12.35
2022-12-09T19:27:30.998Z,12.32
2022-12-09T19:29:58.660Z,9.60
2022-12-09T19:32:52.094Z,17.52
2022-12-09T19:35:56.226Z,8.77
2022-12-09T19:38:12.364Z,9.05
2022-12-09T19:40:44.016Z,10.13
2022-12-09T19:43:13.015Z,11.23
2022-12-09T19:45:40.968Z,10.63
2022-12-09T19:48:10.209Z,11.25
2022-12-09T19:50:37.749Z,11.88
2022-12-09T19:53:05.284Z,10.95
2022-12-09T19:55:35.648Z,11.10
2022-12-09T19:58:04.831Z,10.63
2022-12-09T20:00:36.827Z,11.23
2022-12-09T20:03:07.604Z,10.07
2022-12-09T20:05:35.405Z,8.63
2022-12-09T20:08:03.084Z,10.20
2022-12-09T20:10:33.773Z,10.20
2022-12-09T20:13:01.496Z,9.52
2022-12-09T20:15:30.582Z,9.60
2022-12-09T20:17:58.452Z,9.98
2022-12-09T20:20:26.050Z,11.75
2022-12-09T20:22:53.767Z,11.07
2022-12-09T20:25:21.495Z,10.15
2022-12-09T20:27:49.113Z,10.80
2022-12-09T20:30:17.711Z,10.23
2022-12-09T20:32:48.456Z,10.80
2022-12-09T20:35:16.293Z,11.93
2022-12-09T20:37:43.934Z,10.43
2022-12-09T20:40:12.428Z,11.55
2022-12-09T20:42:40.263Z,10.93
2022-12-09T20:45:09.229Z,12.85
2022-12-09T20:47:37.085Z,12.00
2022-12-09T20:50:07.587Z,11.52
2022-12-09T20:52:35.551Z,10.85
2022-12-09T20:55:03.338Z,13.70
2022-12-09T20:57:31.100Z,10.60
2022-12-09T20:59:58.752Z,12.68
2022-12-09T21:02:26.598Z,13.40
2022-12-09T21:04:54.321Z,12.80
2022-12-09T21:07:23.356Z,12.27
2022-12-09T21:09:51.065Z,14.03
2022-12-09T21:12:21.892Z,12.18
2022-12-09T21:14:49.680Z,13.57
2022-12-09T21:17:17.524Z,12.93
2022-12-09T21:19:45.105Z,12.90
2022-12-09T21:22:12.787Z,14.52
2022-12-09T21:24:41.887Z,13.43
2022-12-09T21:27:09.644Z,11.73
2022-12-09T21:29:37.762Z,11.90
2022-12-09T21:32:05.622Z,12.00
2022-12-09T21:34:33.405Z,14.85
2022-12-09T21:37:01.999Z,12.45
2022-12-09T21:39:29.764Z,11.80
2022-12-09T21:41:58.881Z,12.57
2022-12-09T21:44:27.410Z,13.10
2022-12-09T21:46:55.198Z,18.20
2022-12-09T21:49:22.914Z,13.00
2022-12-09T21:51:50.555Z,15.15
2022-12-09T21:54:18.228Z,12.82
2022-12-09T21:56:45.891Z,13.40
2022-12-09T21:59:15.094Z,11.90
2022-12-09T22:01:43.874Z,12.73
2022-12-09T22:04:13.074Z,13.10
2022-12-09T22:06:40.835Z,11.32
2022-12-09T22:09:08.915Z,10.80
2022-12-09T22:11:37.935Z,11.55
2022-12-09T22:14:06.510Z,11.27
2022-12-09T22:16:38.304Z,10.65
2022-12-09T22:19:08.265Z,11.77
2022-12-09T22:21:36.863Z,11.48
2022-12-09T22:24:06.887Z,11.40
2022-12-09T22:26:34.699Z,12.40
2022-12-09T22:29:03.988Z,11.85
2022-12-09T22:31:33.993Z,11.53
2022-12-09T22:34:04.770Z,11.40
2022-12-09T22:36:33.104Z,11.35
2022-12-09T22:39:00.981Z,11.40
2022-12-09T22:41:29.845Z,11.60
2022-12-09T22:43:57.998Z,10.65
2022-12-09T22:46:27.591Z,11.70
2022-12-09T22:48:55.619Z,12.70
2022-12-09T22:52:31.010Z,11.50
2022-12-09T22:54:56.959Z,11.45
2022-12-09T22:57:24.611Z,11.68
2022-12-09T22:59:52.179Z,10.80
2022-12-09T23:02:19.916Z,10.52
2022-12-09T23:04:47.595Z,12.40
2022-12-09T23:07:16.577Z,11.82
2022-12-09T23:09:44.252Z,11.60
2022-12-09T23:12:11.955Z,10.73
2022-12-09T23:14:39.566Z,12.45
2022-12-09T23:17:07.139Z,12.88
2022-12-09T23:19:35.058Z,9.82
2022-12-09T23:22:03.463Z,11.52
2022-12-09T23:24:44.156Z,12.95
2022-12-09T23:27:11.855Z,12.90
2022-12-09T23:29:41.723Z,11.00
2022-12-09T23:32:13.062Z,12.65
2022-12-09T23:34:41.514Z,11.30
2022-12-09T23:37:09.198Z,12.68
2022-12-09T23:39:38.761Z,12.02
2022-12-09T23:42:07.278Z,11.90
2022-12-09T23:44:36.691Z,12.30
2022-12-09T23:47:05.258Z,10.63
2022-12-09T23:49:33.370Z,10.73
2022-12-09T23:52:01.014Z,11.15
2022-12-09T23:54:28.797Z,14.02
2022-12-09T23:56:57.766Z,11.77
2022-12-09T23:59:25.750Z,11.80
